Terminal Aerodrome Forecast
Issued by NWS

Home | Current Version | Previous Version | Text Only | Print | Product List | Glossary On
Versions: 1 2 3 4 5 6 7 8 9 10 11 12 13 14 15 16 17 18 19 20 21 22 23 24 25 26 27 28 29 30 31 32 33 34 35
000
FTAK31 PAFA 191134
TAFAUN
TAF
PAUN 191134Z 1912/2012 10012KT P6SM SCT045 BKN120
     FM191500 08010KT P6SM SCT045 BKN120 BKN250
     FM200000 08010KT P6SM VCSH BKN045 OVC100
     FM200300 08012KT 6SM -RA BR SCT025 BKN035 OVC050=

USA.gov is the U.S. government's official web portal to all federal, state and local government web resources and services.